Time;durP1;ratioP1;P1;durP2;ratioP2;P2;SDS_P1;SDS_P2;PMS_P1;PMS_P2;Temp;Humidity;BMP_temperature;BMP_pressure;BME280_temperature;BME280_humidity;BME280_pressure;Samples;Min_cycle;Max_cycle;Signal;HPM_P1;HPM_P2
2022/04/23 00:01:42;;;;;;;12.90;10.65;;;;;;;;;;5023837;28;20037;-80
2022/04/23 00:04:11;;;;;;;11.68;10.43;;;;;;;;;;5013836;28;20041;-80
2022/04/23 00:06:37;;;;;;;14.05;11.27;;;;;;;;;;5008072;28;20065;-80
2022/04/23 00:09:03;;;;;;;12.88;11.05;;;;;;;;;;5002541;28;20048;-80
2022/04/23 00:11:28;;;;;;;14.18;11.15;;;;;;;;;;5023571;28;20045;-80
2022/04/23 00:13:55;;;;;;;13.60;10.88;;;;;;;;;;5007558;28;20045;-80
2022/04/23 00:16:21;;;;;;;12.75;11.20;;;;;;;;;;5001691;28;20042;-80
2022/04/23 00:18:47;;;;;;;13.27;11.05;;;;;;;;;;5007364;28;20115;-80
2022/04/23 00:21:13;;;;;;;12.50;10.52;;;;;;;;;;5023190;28;20646;-80
2022/04/23 00:23:38;;;;;;;12.73;11.35;;;;;;;;;;5008035;28;20072;-80
2022/04/23 00:26:03;;;;;;;14.25;11.05;;;;;;;;;;5023368;28;20453;-80
2022/04/23 00:28:28;;;;;;;15.35;11.48;;;;;;;;;;5000767;28;20540;-80
2022/04/23 00:31:04;;;;;;;12.82;11.05;;;;;;;;;;5006576;28;20045;-80
2022/04/23 00:33:29;;;;;;;15.05;11.40;;;;;;;;;;5007219;28;20493;-80
2022/04/23 00:35:55;;;;;;;13.13;11.60;;;;;;;;;;5006596;28;20040;-80
2022/04/23 00:38:20;;;;;;;13.23;11.82;;;;;;;;;;5007503;28;20485;-80
2022/04/23 00:40:49;;;;;;;14.02;12.13;;;;;;;;;;5022973;28;20116;-80
2022/04/23 00:43:27;;;;;;;14.25;11.80;;;;;;;;;;5006848;28;20489;-80
2022/04/23 00:45:56;;;;;;;16.13;12.93;;;;;;;;;;5006670;28;20033;-80
2022/04/23 00:48:26;;;;;;;13.27;11.77;;;;;;;;;;5019894;28;20037;-80
2022/04/23 00:50:52;;;;;;;16.02;12.63;;;;;;;;;;5022902;28;20400;-80
2022/04/23 00:53:19;;;;;;;15.68;12.38;;;;;;;;;;5006700;28;20389;-80
2022/04/23 00:55:46;;;;;;;14.30;12.30;;;;;;;;;;5018865;28;20058;-80
2022/04/23 00:58:13;;;;;;;14.98;12.95;;;;;;;;;;5022609;28;20092;-81
2022/04/23 01:00:40;;;;;;;14.90;13.10;;;;;;;;;;5006628;28;20037;-80
2022/04/23 01:03:06;;;;;;;14.38;12.88;;;;;;;;;;5007697;28;20446;-80
2022/04/23 01:05:31;;;;;;;16.10;13.02;;;;;;;;;;5006092;28;20094;-80
2022/04/23 01:08:00;;;;;;;14.85;13.02;;;;;;;;;;5006033;28;21910;-80
2022/04/23 01:10:26;;;;;;;14.45;12.95;;;;;;;;;;5006175;28;20542;-80
2022/04/23 01:12:51;;;;;;;14.18;12.65;;;;;;;;;;5003675;28;20128;-80
2022/04/23 01:15:20;;;;;;;15.43;13.02;;;;;;;;;;5005559;28;20041;-80
2022/04/23 01:17:47;;;;;;;15.35;13.50;;;;;;;;;;5007456;28;20052;-80
2022/04/23 01:20:14;;;;;;;15.88;13.27;;;;;;;;;;5005714;28;20087;-80
2022/04/23 01:22:41;;;;;;;14.93;13.32;;;;;;;;;;5023199;28;20443;-80
2022/04/23 01:25:28;;;;;;;15.90;13.20;;;;;;;;;;5000302;28;20030;-80
2022/04/23 01:27:54;;;;;;;14.40;12.90;;;;;;;;;;5001239;28;20048;-80
2022/04/23 01:30:19;;;;;;;16.13;13.48;;;;;;;;;;4985657;28;20054;-80
2022/04/23 01:32:45;;;;;;;15.30;13.38;;;;;;;;;;4968930;28;20088;-80
2022/04/23 01:35:10;;;;;;;14.93;13.32;;;;;;;;;;4968580;28;20034;-80
2022/04/23 01:37:38;;;;;;;15.07;13.45;;;;;;;;;;4970428;28;20096;-80
2022/04/23 01:40:04;;;;;;;16.10;13.75;;;;;;;;;;4969733;28;20037;-80
2022/04/23 01:42:29;;;;;;;16.48;13.35;;;;;;;;;;4968706;28;20065;-80
2022/04/23 01:44:55;;;;;;;15.85;13.70;;;;;;;;;;4986059;28;20551;-80
2022/04/23 01:47:20;;;;;;;16.95;13.73;;;;;;;;;;4967948;28;20128;-80
2022/04/23 01:49:46;;;;;;;16.58;14.52;;;;;;;;;;4980318;28;20053;-80
2022/04/23 01:52:12;;;;;;;15.95;13.40;;;;;;;;;;4985450;28;20062;-80
2022/04/23 01:54:38;;;;;;;16.02;13.60;;;;;;;;;;4969793;28;20042;-80
2022/04/23 01:57:04;;;;;;;16.05;13.30;;;;;;;;;;4984556;28;20579;-80
2022/04/23 01:59:32;;;;;;;14.57;13.02;;;;;;;;;;5001310;28;20497;-80
2022/04/23 02:02:03;;;;;;;15.18;13.40;;;;;;;;;;4968934;28;20075;-80
2022/04/23 02:04:28;;;;;;;15.25;13.60;;;;;;;;;;4979984;28;20400;-80
2022/04/23 02:06:54;;;;;;;15.98;13.70;;;;;;;;;;5005539;28;20159;-81
2022/04/23 02:09:19;;;;;;;15.18;13.57;;;;;;;;;;5006112;28;20120;-80
2022/04/23 02:11:45;;;;;;;16.80;14.35;;;;;;;;;;5005909;28;20068;-80
2022/04/23 02:14:10;;;;;;;15.75;14.00;;;;;;;;;;5003981;28;20076;-82
2022/04/23 02:16:36;;;;;;;14.95;13.23;;;;;;;;;;5022622;28;20038;-79
2022/04/23 02:19:03;;;;;;;15.13;13.38;;;;;;;;;;5006402;28;20037;-80
2022/04/23 02:21:29;;;;;;;16.20;13.18;;;;;;;;;;5011965;28;20492;-80
2022/04/23 02:23:55;;;;;;;15.57;13.43;;;;;;;;;;5006352;28;20037;-79
2022/04/23 02:26:20;;;;;;;16.25;13.68;;;;;;;;;;5003611;28;20036;-79
2022/04/23 02:28:58;;;;;;;15.93;13.95;;;;;;;;;;5025623;28;20054;-79
2022/04/23 02:31:25;;;;;;;15.20;12.70;;;;;;;;;;5006582;28;20092;-79
2022/04/23 02:33:53;;;;;;;;;;;;;;;;;;5027993;28;20038;-80
2022/04/23 02:36:19;;;;;;;14.48;12.65;;;;;;;;;;5009118;28;19921;-79
2022/04/23 02:38:44;;;;;;;15.38;13.07;;;;;;;;;;5025981;28;20041;-79
2022/04/23 02:41:10;;;;;;;14.95;12.88;;;;;;;;;;5024953;28;20021;-80
2022/04/23 02:43:38;;;;;;;14.98;13.15;;;;;;;;;;5010182;28;20037;-80
2022/04/23 02:46:06;;;;;;;;;;;;;;;;;;5009773;28;20033;-79
2022/04/23 02:48:31;;;;;;;15.40;13.77;;;;;;;;;;5025693;28;20024;-80
2022/04/23 02:50:57;;;;;;;15.68;12.77;;;;;;;;;;5025276;28;20109;-79
2022/04/23 02:53:23;;;;;;;16.63;13.55;;;;;;;;;;5009404;28;20033;-80
2022/04/23 02:55:48;;;;;;;17.30;13.50;;;;;;;;;;5003408;28;20037;-79
2022/04/23 02:58:14;;;;;;;15.45;13.25;;;;;;;;;;5009117;28;20037;-80
2022/04/23 03:00:41;;;;;;;15.20;13.10;;;;;;;;;;5008695;28;20099;-79
2022/04/23 03:03:10;;;;;;;14.80;13.05;;;;;;;;;;5009818;28;20029;-80
2022/04/23 03:05:37;;;;;;;16.92;14.32;;;;;;;;;;5024612;28;20508;-80
2022/04/23 03:08:03;;;;;;;15.23;13.52;;;;;;;;;;5025607;28;20524;-79
2022/04/23 03:10:30;;;;;;;15.15;13.30;;;;;;;;;;5002896;28;20224;-80
2022/04/23 03:12:57;;;;;;;14.15;12.65;;;;;;;;;;5000009;28;20081;-79
2022/04/23 03:15:24;;;;;;;16.52;13.77;;;;;;;;;;5008192;28;20048;-79
2022/04/23 03:17:50;;;;;;;15.07;13.07;;;;;;;;;;5025426;28;20026;-80
2022/04/23 03:20:15;;;;;;;15.93;13.32;;;;;;;;;;5007409;28;20033;-80
2022/04/23 03:22:42;;;;;;;16.65;13.05;;;;;;;;;;5025451;28;20148;-79
2022/04/23 03:25:09;;;;;;;15.48;12.65;;;;;;;;;;5025421;28;20053;-79
2022/04/23 03:27:37;;;;;;;13.85;12.35;;;;;;;;;;5003607;28;20488;-79
2022/04/23 03:30:04;;;;;;;16.00;13.73;;;;;;;;;;5008526;28;20091;-79
2022/04/23 03:32:31;;;;;;;16.17;12.88;;;;;;;;;;5024210;28;20041;-79
2022/04/23 03:34:59;;;;;;;15.85;12.63;;;;;;;;;;5009124;28;20041;-79
2022/04/23 03:37:24;;;;;;;14.35;12.52;;;;;;;;;;5006789;28;20055;-80
2022/04/23 03:39:49;;;;;;;17.92;12.90;;;;;;;;;;5008096;28;20041;-79
2022/04/23 03:42:15;;;;;;;14.75;12.27;;;;;;;;;;5024263;28;20096;-79
2022/04/23 03:44:40;;;;;;;14.55;12.10;;;;;;;;;;5008762;28;20045;-79
2022/04/23 03:47:06;;;;;;;16.55;12.90;;;;;;;;;;5024899;28;20033;-79
2022/04/23 03:49:31;;;;;;;15.73;13.07;;;;;;;;;;5024645;28;20037;-79
2022/04/23 03:51:57;;;;;;;15.00;12.70;;;;;;;;;;5007648;28;20041;-79
2022/04/23 03:54:23;;;;;;;15.57;13.23;;;;;;;;;;5007932;28;20524;-79
2022/04/23 03:56:48;;;;;;;15.30;12.48;;;;;;;;;;5024190;28;20137;-79
2022/04/23 03:59:14;;;;;;;16.17;12.90;;;;;;;;;;5008308;28;20458;-79
2022/04/23 04:01:40;;;;;;;13.75;12.18;;;;;;;;;;5007451;28;20034;-79
2022/04/23 04:04:08;;;;;;;14.52;12.52;;;;;;;;;;5025069;28;20121;-79
2022/04/23 04:06:33;;;;;;;15.10;12.90;;;;;;;;;;4999701;28;20052;-79
2022/04/23 04:08:59;;;;;;;14.85;12.55;;;;;;;;;;5024556;28;20041;-79
2022/04/23 04:11:24;;;;;;;15.30;12.63;;;;;;;;;;5006823;28;20563;-79
2022/04/23 04:13:50;;;;;;;15.30;12.68;;;;;;;;;;5008316;28;20033;-79
2022/04/23 04:16:22;;;;;;;14.20;11.77;;;;;;;;;;5007238;28;20033;-79
2022/04/23 04:18:48;;;;;;;15.90;13.30;;;;;;;;;;5030744;28;20052;-80
2022/04/23 04:21:14;;;;;;;15.60;12.77;;;;;;;;;;5007272;28;20489;-79
2022/04/23 04:23:39;;;;;;;15.27;12.70;;;;;;;;;;5023818;28;20480;-79
2022/04/23 04:26:06;;;;;;;15.75;13.35;;;;;;;;;;5023746;28;20036;-79
2022/04/23 04:28:31;;;;;;;16.13;12.93;;;;;;;;;;5023711;28;20401;-79
2022/04/23 04:33:43;;;;;;;17.77;13.02;;;;;;;;;;5023731;28;20091;-79
2022/04/23 04:36:08;;;;;;;19.63;13.43;;;;;;;;;;5007282;28;20029;-79
2022/04/23 04:38:35;;;;;;;15.30;13.10;;;;;;;;;;5007954;28;20475;-79
2022/04/23 04:41:01;;;;;;;15.88;12.90;;;;;;;;;;5023238;28;20484;-80
2022/04/23 04:43:26;;;;;;;15.35;13.38;;;;;;;;;;5023725;28;20036;-79
2022/04/23 04:45:54;;;;;;;16.25;13.63;;;;;;;;;;5023441;28;20033;-80
2022/04/23 04:48:20;;;;;;;15.10;12.85;;;;;;;;;;5000532;28;20046;-80
2022/04/23 04:50:45;;;;;;;16.95;14.48;;;;;;;;;;5006660;28;20666;-79
2022/04/23 04:53:10;;;;;;;16.35;13.60;;;;;;;;;;5007316;28;20033;-79
2022/04/23 04:55:36;;;;;;;15.23;13.23;;;;;;;;;;5018050;28;20034;-79
2022/04/23 04:58:02;;;;;;;16.33;14.13;;;;;;;;;;5007220;28;20041;-79
2022/04/23 05:00:28;;;;;;;16.85;14.40;;;;;;;;;;5006467;28;20041;-79
2022/04/23 05:02:54;;;;;;;16.55;13.88;;;;;;;;;;5023487;28;20508;-79
2022/04/23 05:05:19;;;;;;;16.63;13.40;;;;;;;;;;4997140;28;20041;-81
2022/04/23 05:07:44;;;;;;;16.38;13.90;;;;;;;;;;5006844;28;20432;-79
2022/04/23 05:10:10;;;;;;;16.67;13.48;;;;;;;;;;5006275;28;20103;-79
2022/04/23 05:12:35;;;;;;;18.08;13.23;;;;;;;;;;5007405;28;20114;-81
2022/04/23 05:15:00;;;;;;;15.70;13.43;;;;;;;;;;5000689;28;20511;-80
2022/04/23 05:17:26;;;;;;;14.02;12.52;;;;;;;;;;5006570;28;20039;-80
2022/04/23 05:19:51;;;;;;;15.60;12.98;;;;;;;;;;5006709;28;20041;-82
2022/04/23 05:22:16;;;;;;;15.32;13.18;;;;;;;;;;5006439;28;20037;-80
2022/04/23 05:24:42;;;;;;;15.52;12.63;;;;;;;;;;5006832;28;20044;-80
2022/04/23 05:27:07;;;;;;;15.38;12.90;;;;;;;;;;5006816;28;20064;-79
2022/04/23 05:29:32;;;;;;;13.88;12.23;;;;;;;;;;5006392;28;20185;-80
2022/04/23 05:31:58;;;;;;;14.45;12.13;;;;;;;;;;5005746;28;20061;-81
2022/04/23 05:34:25;;;;;;;13.82;11.57;;;;;;;;;;5006929;28;20041;-80
2022/04/23 05:36:50;;;;;;;12.80;11.13;;;;;;;;;;5001429;28;20112;-80
2022/04/23 05:39:15;;;;;;;14.10;11.50;;;;;;;;;;5023387;28;20104;-81
2022/04/23 05:41:41;;;;;;;15.55;12.15;;;;;;;;;;5006358;28;20038;-80
2022/04/23 05:44:06;;;;;;;13.73;11.43;;;;;;;;;;5020758;28;20041;-80
2022/04/23 05:46:31;;;;;;;13.18;10.43;;;;;;;;;;5021980;28;20050;-80
2022/04/23 05:48:57;;;;;;;13.57;11.43;;;;;;;;;;5006391;28;20037;-80
2022/04/23 05:51:23;;;;;;;12.15;10.75;;;;;;;;;;5022637;28;20072;-81
2022/04/23 05:53:49;;;;;;;12.38;10.70;;;;;;;;;;5023060;28;20033;-80
2022/04/23 05:56:14;;;;;;;11.85;10.50;;;;;;;;;;5022492;28;20030;-80
2022/04/23 05:58:39;;;;;;;12.95;10.52;;;;;;;;;;5019461;28;20048;-81
2022/04/23 06:01:05;;;;;;;14.35;10.88;;;;;;;;;;5000992;28;20544;-81
2022/04/23 06:03:30;;;;;;;14.52;10.77;;;;;;;;;;5026704;28;20045;-80
2022/04/23 06:05:56;;;;;;;13.18;10.38;;;;;;;;;;5025992;28;20037;-80
2022/04/23 06:08:21;;;;;;;12.82;10.05;;;;;;;;;;5009988;28;20048;-80
2022/04/23 06:10:46;;;;;;;12.65;10.15;;;;;;;;;;5009085;28;20036;-80
2022/04/23 06:13:12;;;;;;;11.93;10.07;;;;;;;;;;5009981;28;20116;-81
2022/04/23 06:15:37;;;;;;;11.88;9.93;;;;;;;;;;5026241;28;20072;-81
2022/04/23 06:18:03;;;;;;;13.40;10.07;;;;;;;;;;5010013;28;20385;-81
2022/04/23 06:20:28;;;;;;;13.63;9.88;;;;;;;;;;5025770;28;20037;-81
2022/04/23 06:22:53;;;;;;;12.20;10.32;;;;;;;;;;5026501;28;20036;-81
2022/04/23 06:25:19;;;;;;;11.63;9.90;;;;;;;;;;5009123;28;20049;-80
2022/04/23 06:27:44;;;;;;;11.65;9.93;;;;;;;;;;5009473;28;20496;-82
2022/04/23 06:30:09;;;;;;;11.73;9.90;;;;;;;;;;5025845;28;20057;-81
2022/04/23 06:32:37;;;;;;;11.52;9.80;;;;;;;;;;5009953;28;20072;-80
2022/04/23 06:35:03;;;;;;;11.50;9.82;;;;;;;;;;5010312;28;20587;-81
2022/04/23 06:37:29;;;;;;;10.50;9.00;;;;;;;;;;5008559;28;20075;-81
2022/04/23 06:39:54;;;;;;;11.38;8.43;;;;;;;;;;5009887;28;20094;-81
2022/04/23 06:42:22;;;;;;;9.50;8.40;;;;;;;;;;5008640;28;20579;-81
2022/04/23 06:44:48;;;;;;;9.90;8.05;;;;;;;;;;5001666;28;20045;-81
2022/04/23 06:47:16;;;;;;;9.68;7.93;;;;;;;;;;5025266;28;20056;-81
2022/04/23 06:49:41;;;;;;;8.90;7.60;;;;;;;;;;5009444;28;20325;-81
2022/04/23 06:52:07;;;;;;;9.18;7.78;;;;;;;;;;5009289;28;20519;-81
2022/04/23 06:54:32;;;;;;;8.30;7.10;;;;;;;;;;5000669;28;20045;-81
2022/04/23 06:56:57;;;;;;;9.63;6.93;;;;;;;;;;5008389;28;20117;-81
2022/04/23 06:59:22;;;;;;;10.32;6.93;;;;;;;;;;5003350;28;20913;-81
2022/04/23 07:01:48;;;;;;;8.68;6.85;;;;;;;;;;5025321;28;20041;-81
2022/04/23 07:04:13;;;;;;;8.65;6.47;;;;;;;;;;5009351;28;20444;-81
2022/04/23 07:06:38;;;;;;;8.68;6.53;;;;;;;;;;5025380;28;20033;-81
2022/04/23 07:09:05;;;;;;;9.43;5.88;;;;;;;;;;5008705;28;20041;-82
2022/04/23 07:11:32;;;;;;;7.18;5.95;;;;;;;;;;5002715;28;20045;-81
2022/04/23 07:13:57;;;;;;;7.25;6.07;;;;;;;;;;5008754;28;20091;-81
2022/04/23 07:16:22;;;;;;;8.38;6.05;;;;;;;;;;5021354;28;20057;-82
2022/04/23 07:18:48;;;;;;;6.72;5.60;;;;;;;;;;5008645;28;20120;-82
2022/04/23 07:21:13;;;;;;;9.15;6.15;;;;;;;;;;5009353;28;20040;-81
2022/04/23 07:26:25;;;;;;;7.50;6.05;;;;;;;;;;5024355;28;20036;-81
2022/04/23 07:28:50;;;;;;;6.55;4.95;;;;;;;;;;5008168;28;20160;-82
2022/04/23 07:31:16;;;;;;;5.38;4.43;;;;;;;;;;5008009;28;20055;-81
2022/04/23 07:39:08;;;;;;;5.13;4.20;;;;;;;;;;5021587;28;20040;-81
2022/04/23 07:41:34;;;;;;;6.10;4.93;;;;;;;;;;5007951;28;20045;-81
2022/04/23 07:43:59;;;;;;;7.80;5.63;;;;;;;;;;5008264;28;20519;-81
2022/04/23 07:46:24;;;;;;;7.15;5.22;;;;;;;;;;5008377;28;20056;-81
2022/04/23 07:48:50;;;;;;;6.47;4.65;;;;;;;;;;5008220;28;20042;-81
2022/04/23 07:51:16;;;;;;;5.90;5.13;;;;;;;;;;5008371;28;20380;-81
2022/04/23 07:53:41;;;;;;;6.70;5.07;;;;;;;;;;5025154;28;20900;-81
2022/04/23 07:56:06;;;;;;;5.93;4.70;;;;;;;;;;5008451;28;20386;-82
2022/04/23 07:58:32;;;;;;;7.05;4.90;;;;;;;;;;5002601;28;20040;-81
2022/04/23 08:00:57;;;;;;;8.32;4.93;;;;;;;;;;5001707;28;20400;-81
2022/04/23 08:03:23;;;;;;;6.60;5.20;;;;;;;;;;5001257;28;20061;-81
2022/04/23 08:05:48;;;;;;;8.75;5.50;;;;;;;;;;5024681;28;20041;-82
2022/04/23 08:08:17;;;;;;;16.77;11.18;;;;;;;;;;5024754;28;20037;-82
2022/04/23 08:10:43;;;;;;;6.68;5.45;;;;;;;;;;4999549;28;20037;-82
2022/04/23 08:13:09;;;;;;;7.93;5.50;;;;;;;;;;5009037;28;20044;-82
2022/04/23 08:15:34;;;;;;;8.15;5.97;;;;;;;;;;5007445;28;20743;-81
2022/04/23 08:18:02;;;;;;;6.50;5.47;;;;;;;;;;5024248;28;20033;-81
2022/04/23 08:20:30;;;;;;;7.15;5.47;;;;;;;;;;5024691;28;20400;-81
2022/04/23 08:22:56;;;;;;;;;;;;;;;;;;5007712;28;20036;-82
2022/04/23 08:25:21;;;;;;;8.20;6.38;;;;;;;;;;5006803;28;19916;-81
2022/04/23 08:27:51;;;;;;;5.72;5.03;;;;;;;;;;5007927;28;20048;-81
2022/04/23 08:30:35;;;;;;;7.45;5.20;;;;;;;;;;5013567;28;20102;-82
2022/04/23 08:33:05;;;;;;;6.95;5.57;;;;;;;;;;5024359;28;20038;-81
2022/04/23 08:35:31;;;;;;;6.70;5.70;;;;;;;;;;5023488;28;20052;-82
2022/04/23 08:37:56;;;;;;;7.68;6.50;;;;;;;;;;5015704;28;20134;-82
2022/04/23 08:40:24;;;;;;;7.43;6.00;;;;;;;;;;5000258;28;20029;-82
2022/04/23 08:42:51;;;;;;;7.10;5.18;;;;;;;;;;5009134;28;20087;-82
2022/04/23 08:45:16;;;;;;;6.22;5.13;;;;;;;;;;5006497;28;20041;-82
2022/04/23 08:47:47;;;;;;;6.20;5.60;;;;;;;;;;5024507;28;20481;-82
2022/04/23 08:50:13;;;;;;;6.20;5.22;;;;;;;;;;5030622;28;20048;-82
2022/04/23 08:52:43;;;;;;;5.88;5.07;;;;;;;;;;5001235;28;20199;-82
2022/04/23 08:55:09;;;;;;;6.25;5.15;;;;;;;;;;5014876;28;20516;-82
2022/04/23 08:57:36;;;;;;;6.28;5.07;;;;;;;;;;5023269;28;20040;-82
2022/04/23 09:00:04;;;;;;;6.57;4.82;;;;;;;;;;5007767;28;20041;-81
2022/04/23 09:02:32;;;;;;;8.73;4.97;;;;;;;;;;5024353;28;20501;-82
2022/04/23 09:04:57;;;;;;;6.03;5.20;;;;;;;;;;5006660;28;20175;-81
2022/04/23 09:07:24;;;;;;;5.70;5.10;;;;;;;;;;5005912;28;20548;-81
2022/04/23 09:09:51;;;;;;;5.50;4.53;;;;;;;;;;5013180;28;20493;-81
2022/04/23 09:12:17;;;;;;;7.30;5.45;;;;;;;;;;5023287;28;20033;-81
2022/04/23 09:14:45;;;;;;;5.88;5.05;;;;;;;;;;5007348;28;20045;-81
2022/04/23 09:25:30;;;;;;;5.32;3.75;;;;;;;;;;5022774;28;20048;-80
2022/04/23 09:27:55;;;;;;;5.28;3.67;;;;;;;;;;5031311;28;20049;-81
2022/04/23 09:30:20;;;;;;;5.10;4.00;;;;;;;;;;5012305;28;20049;-81
2022/04/23 09:32:57;;;;;;;4.38;3.90;;;;;;;;;;5006400;28;20069;-81
2022/04/23 09:35:25;;;;;;;4.95;3.90;;;;;;;;;;5022746;28;20038;-81
2022/04/23 09:40:34;;;;;;;5.15;3.80;;;;;;;;;;5027023;28;20080;-81
2022/04/23 09:43:02;;;;;;;4.72;3.55;;;;;;;;;;5010481;28;20042;-82
2022/04/23 09:45:31;;;;;;;5.35;3.42;;;;;;;;;;5001432;28;20042;-81
2022/04/23 09:48:17;;;;;;;4.80;3.58;;;;;;;;;;5010741;28;20561;-80
2022/04/23 09:50:45;;;;;;;5.50;4.00;;;;;;;;;;5026121;28;20038;-81
2022/04/23 09:53:10;;;;;;;;;;;;;;;;;;5011203;28;20440;-80
2022/04/23 09:55:36;;;;;;;4.63;3.58;;;;;;;;;;5010796;28;19924;-81
2022/04/23 09:58:04;;;;;;;4.07;3.10;;;;;;;;;;5005048;28;20045;-81
2022/04/23 10:00:30;;;;;;;4.80;3.53;;;;;;;;;;5004938;28;20560;-82
2022/04/23 10:02:59;;;;;;;4.32;3.60;;;;;;;;;;5042342;28;20045;-82
2022/04/23 10:05:33;;;;;;;4.55;3.20;;;;;;;;;;5009572;28;20037;-82
2022/04/23 10:07:59;;;;;;;3.78;3.03;;;;;;;;;;5026822;28;20045;-81
2022/04/23 10:10:26;;;;;;;3.90;3.10;;;;;;;;;;5026120;28;20087;-81
2022/04/23 10:12:52;;;;;;;4.00;3.17;;;;;;;;;;5026617;28;20049;-82
2022/04/23 10:15:17;;;;;;;4.40;3.58;;;;;;;;;;5025824;28;20476;-82
2022/04/23 10:17:43;;;;;;;6.25;3.80;;;;;;;;;;5005651;28;20036;-82
2022/04/23 10:20:11;;;;;;;4.53;3.55;;;;;;;;;;5016835;28;20492;-82
2022/04/23 10:23:16;;;;;;;4.82;3.47;;;;;;;;;;5005084;28;20044;-82
2022/04/23 10:25:59;;;;;;;4.70;3.63;;;;;;;;;;5008930;28;20497;-81
2022/04/23 10:28:28;;;;;;;4.97;3.70;;;;;;;;;;5026039;28;20083;-81
2022/04/23 10:31:15;;;;;;;7.28;5.10;;;;;;;;;;5025635;28;20041;-81
2022/04/23 10:33:54;;;;;;;5.32;3.40;;;;;;;;;;5020066;28;20033;-81
2022/04/23 10:36:21;;;;;;;4.95;3.53;;;;;;;;;;5014965;28;20377;-82
2022/04/23 10:38:51;;;;;;;5.80;3.40;;;;;;;;;;5026033;28;20034;-81
2022/04/23 10:41:20;;;;;;;5.00;3.10;;;;;;;;;;5009546;28;20175;-82
2022/04/23 10:43:50;;;;;;;4.47;2.63;;;;;;;;;;5025991;28;20064;-81
2022/04/23 10:46:37;;;;;;;3.75;2.70;;;;;;;;;;5008242;28;20029;-82
2022/04/23 10:49:18;;;;;;;3.60;2.67;;;;;;;;;;5025600;28;20410;-82
2022/04/23 10:51:46;;;;;;;4.22;2.80;;;;;;;;;;5008560;28;20748;-81
2022/04/23 10:54:11;;;;;;;3.65;2.50;;;;;;;;;;4999887;28;20034;-80
2022/04/23 10:56:40;;;;;;;3.80;2.55;;;;;;;;;;5009354;28;20095;-81
2022/04/23 10:59:34;;;;;;;4.95;2.90;;;;;;;;;;5009863;28;20033;-82
2022/04/23 11:02:06;;;;;;;4.25;3.15;;;;;;;;;;5017569;28;20139;-81
2022/04/23 11:04:32;;;;;;;4.35;3.15;;;;;;;;;;5002119;28;20037;-81
2022/04/23 11:12:39;;;;;;;3.92;3.00;;;;;;;;;;5005837;28;20043;-81
2022/04/23 11:15:15;;;;;;;4.10;3.20;;;;;;;;;;5002805;28;20033;-81
2022/04/23 11:17:44;;;;;;;3.50;2.65;;;;;;;;;;4999061;28;20044;-81
2022/04/23 11:20:10;;;;;;;4.15;2.72;;;;;;;;;;5025220;28;20044;-81
2022/04/23 11:22:36;;;;;;;5.20;2.78;;;;;;;;;;5008911;28;20549;-81
2022/04/23 11:25:01;;;;;;;5.32;2.70;;;;;;;;;;5008786;28;20040;-82
2022/04/23 11:27:28;;;;;;;4.47;3.00;;;;;;;;;;5024258;28;20036;-81
2022/04/23 11:29:54;;;;;;;4.72;2.60;;;;;;;;;;5001207;28;20103;-81
2022/04/23 11:32:29;;;;;;;4.57;2.65;;;;;;;;;;5001918;28;20404;-81
2022/04/23 11:35:03;;;;;;;11.50;4.82;;;;;;;;;;5017067;28;20452;-81
2022/04/23 11:37:36;;;;;;;6.90;4.63;;;;;;;;;;5007723;28;20500;-81
2022/04/23 11:40:08;;;;;;;3.90;2.65;;;;;;;;;;5008515;28;20029;-81
2022/04/23 11:42:37;;;;;;;3.95;2.50;;;;;;;;;;5024186;28;20096;-81
2022/04/23 11:45:03;;;;;;;4.43;2.58;;;;;;;;;;5024757;28;20025;-81
2022/04/23 11:47:30;;;;;;;3.47;2.42;;;;;;;;;;5002140;28;20513;-82
2022/04/23 11:50:06;;;;;;;3.40;2.45;;;;;;;;;;5008565;28;20136;-81
2022/04/23 11:52:32;;;;;;;3.65;2.50;;;;;;;;;;5008075;28;20037;-82
2022/04/23 11:54:57;;;;;;;4.20;2.80;;;;;;;;;;4999670;28;20099;-81
2022/04/23 11:57:23;;;;;;;3.97;2.90;;;;;;;;;;4999062;28;20485;-81
2022/04/23 11:59:50;;;;;;;4.75;2.60;;;;;;;;;;5023627;28;20046;-80
2022/04/23 12:02:22;;;;;;;5.07;2.53;;;;;;;;;;5007974;28;20556;-81
2022/04/23 12:04:53;;;;;;;3.95;2.60;;;;;;;;;;5024926;28;20305;-81
2022/04/23 12:07:19;;;;;;;4.15;3.03;;;;;;;;;;4991641;28;20531;-80
2022/04/23 12:09:46;;;;;;;4.85;3.00;;;;;;;;;;5008625;28;20057;-82
2022/04/23 12:12:15;;;;;;;5.60;3.20;;;;;;;;;;5007823;28;20067;-81
2022/04/23 12:14:44;;;;;;;4.32;3.17;;;;;;;;;;5040673;28;20130;-80
2022/04/23 12:17:09;;;;;;;4.60;3.10;;;;;;;;;;5007869;28;20026;-81
2022/04/23 12:19:35;;;;;;;5.78;3.10;;;;;;;;;;5008144;28;20099;-81
2022/04/23 12:22:00;;;;;;;13.68;6.70;;;;;;;;;;5007491;28;20049;-80
2022/04/23 12:24:35;;;;;;;4.20;2.97;;;;;;;;;;5007431;28;20894;-81
2022/04/23 12:27:04;;;;;;;5.20;3.65;;;;;;;;;;5023484;28;20045;-80
2022/04/23 12:40:50;;;;;;;6.25;2.95;;;;;;;;;;5016667;28;20079;-80
2022/04/23 12:43:23;;;;;;;5.93;2.55;;;;;;;;;;5024206;28;20500;-81
2022/04/23 12:45:49;;;;;;;4.68;3.08;;;;;;;;;;5013563;28;20033;-81
2022/04/23 12:48:17;;;;;;;4.28;2.80;;;;;;;;;;5007423;28;20048;-81
2022/04/23 12:50:44;;;;;;;5.28;3.00;;;;;;;;;;5007332;28;20033;-81
2022/04/23 12:53:10;;;;;;;3.90;2.60;;;;;;;;;;5007691;28;20036;-81
2022/04/23 12:55:37;;;;;;;3.65;2.40;;;;;;;;;;5022738;28;20595;-81
2022/04/23 12:58:02;;;;;;;3.75;2.35;;;;;;;;;;5006954;28;20040;-80
2022/04/23 13:00:28;;;;;;;3.67;2.35;;;;;;;;;;5023045;28;20037;-80
2022/04/23 13:03:00;;;;;;;4.70;2.70;;;;;;;;;;5006477;28;20044;-81
2022/04/23 13:05:26;;;;;;;6.57;2.70;;;;;;;;;;4995801;28;20044;-81
2022/04/23 13:10:37;;;;;;;4.97;2.45;;;;;;;;;;5018377;28;20501;-81
2022/04/23 13:13:02;;;;;;;5.70;3.10;;;;;;;;;;5006235;28;20083;-81
2022/04/23 13:15:29;;;;;;;4.93;3.05;;;;;;;;;;5005964;28;20077;-81
2022/04/23 13:17:54;;;;;;;5.20;2.60;;;;;;;;;;5023153;28;20079;-82
2022/04/23 13:20:20;;;;;;;5.00;2.60;;;;;;;;;;5022464;28;20057;-82
2022/04/23 13:22:46;;;;;;;3.95;2.72;;;;;;;;;;5022983;28;20485;-82
2022/04/23 13:25:17;;;;;;;4.60;2.85;;;;;;;;;;5006733;28;20120;-80
2022/04/23 13:27:43;;;;;;;4.00;2.67;;;;;;;;;;5022860;28;20559;-80
2022/04/23 13:30:09;;;;;;;4.13;2.75;;;;;;;;;;5022326;28;20095;-81
2022/04/23 13:32:36;;;;;;;4.63;2.78;;;;;;;;;;5005879;28;20025;-82
2022/04/23 13:35:05;;;;;;;4.03;2.67;;;;;;;;;;5007196;28;20378;-81
2022/04/23 13:37:31;;;;;;;6.18;3.08;;;;;;;;;;5006272;28;20120;-80
2022/04/23 13:39:57;;;;;;;4.47;3.22;;;;;;;;;;5006589;28;20033;-80
2022/04/23 13:42:24;;;;;;;5.55;3.60;;;;;;;;;;5021846;28;20492;-80
2022/04/23 13:44:50;;;;;;;5.30;3.53;;;;;;;;;;5039594;28;20041;-80
2022/04/23 13:47:15;;;;;;;4.60;3.30;;;;;;;;;;4997898;28;20037;-80
2022/04/23 13:49:40;;;;;;;4.60;3.25;;;;;;;;;;5006548;28;20081;-80
2022/04/23 13:52:06;;;;;;;13.40;8.77;;;;;;;;;;5022531;28;20056;-81
2022/04/23 13:54:32;;;;;;;5.50;3.90;;;;;;;;;;5023193;28;20216;-82
2022/04/23 13:57:00;;;;;;;4.43;2.97;;;;;;;;;;5011805;28;20033;-81
2022/04/23 13:59:29;;;;;;;5.40;3.28;;;;;;;;;;5005924;28;20029;-81
2022/04/23 14:10:08;;;;;;;5.07;2.95;;;;;;;;;;5022388;28;20055;-81
2022/04/23 14:12:37;;;;;;;4.75;3.17;;;;;;;;;;5022568;28;20388;-81
2022/04/23 14:15:06;;;;;;;5.05;3.03;;;;;;;;;;4997328;28;20037;-81
2022/04/23 14:17:32;;;;;;;4.68;2.80;;;;;;;;;;5005534;28;20046;-82
2022/04/23 14:19:58;;;;;;;8.20;3.10;;;;;;;;;;5006030;28;20030;-81
2022/04/23 14:22:23;;;;;;;4.65;3.08;;;;;;;;;;5007183;28;20119;-81
2022/04/23 14:24:49;;;;;;;5.05;2.90;;;;;;;;;;5025905;28;20037;-81
2022/04/23 14:27:14;;;;;;;4.20;2.88;;;;;;;;;;5008750;28;20042;-80
2022/04/23 14:29:39;;;;;;;5.60;2.78;;;;;;;;;;5026146;28;20046;-81
2022/04/23 14:32:05;;;;;;;4.57;2.80;;;;;;;;;;5008675;28;20041;-80
2022/04/23 14:34:30;;;;;;;4.28;3.10;;;;;;;;;;5016951;28;21172;-81
2022/04/23 14:36:56;;;;;;;5.18;3.00;;;;;;;;;;5008925;28;20026;-81
2022/04/23 14:39:21;;;;;;;4.60;3.30;;;;;;;;;;5006508;28;20108;-81
2022/04/23 14:41:46;;;;;;;4.85;3.15;;;;;;;;;;5008512;28;20032;-80
2022/04/23 14:44:12;;;;;;;3.97;3.08;;;;;;;;;;5025294;28;20061;-80
2022/04/23 14:46:37;;;;;;;4.85;2.90;;;;;;;;;;5008970;28;20121;-81
2022/04/23 14:49:02;;;;;;;4.97;2.83;;;;;;;;;;5026352;28;20038;-80
2022/04/23 14:54:11;;;;;;;4.40;3.17;;;;;;;;;;5022280;28;20044;-80
2022/04/23 14:56:37;;;;;;;4.65;3.00;;;;;;;;;;5009362;28;20498;-80
2022/04/23 14:59:02;;;;;;;4.80;3.20;;;;;;;;;;5009541;28;20103;-81
2022/04/23 15:01:37;;;;;;;4.38;2.88;;;;;;;;;;5008226;28;20030;-81
2022/04/23 15:04:09;;;;;;;5.05;3.30;;;;;;;;;;5000007;28;20037;-81
2022/04/23 15:06:35;;;;;;;5.07;3.30;;;;;;;;;;5025198;28;20405;-81
2022/04/23 15:09:00;;;;;;;4.70;3.53;;;;;;;;;;5025874;28;20046;-80
2022/04/23 15:11:29;;;;;;;7.20;3.45;;;;;;;;;;5009426;28;20044;-80
2022/04/23 15:13:54;;;;;;;5.70;3.75;;;;;;;;;;5017600;28;20040;-80
2022/04/23 15:16:19;;;;;;;7.38;3.70;;;;;;;;;;5008667;28;20033;-80
2022/04/23 15:18:45;;;;;;;5.97;3.25;;;;;;;;;;5025806;28;20033;-80
2022/04/23 15:21:10;;;;;;;4.60;3.40;;;;;;;;;;5025745;28;20029;-80
2022/04/23 15:23:35;;;;;;;6.30;3.55;;;;;;;;;;5001771;28;20087;-80
2022/04/23 15:26:01;;;;;;;6.40;3.17;;;;;;;;;;5025146;28;20389;-80